Time;durP1;ratioP1;P1;durP2;ratioP2;P2;SDS_P1;SDS_P2;PMS_P1;PMS_P2;Temp;Humidity;BMP_temperature;BMP_pressure;BME280_temperature;BME280_humidity;BME280_pressure;Samples;Min_cycle;Max_cycle;Signal;HPM_P1;HPM_P2
2021/12/11 00:01:06;;;;;;;12.13;3.63;;;;;;;23.49;46.82;98050.31;7316803;19;129027;-38
2021/12/11 00:03:39;;;;;;;12.13;3.47;;;;;;;23.60;46.35;98049.00;7317035;19;130170;-40
2021/12/11 00:06:21;;;;;;;14.90;3.58;;;;;;;23.71;45.78;98056.34;7317065;19;130579;-37
2021/12/11 00:08:49;;;;;;;11.10;3.05;;;;;;;23.85;45.05;98051.00;7316839;19;128873;-37
2021/12/11 00:11:20;;;;;;;13.30;3.15;;;;;;;23.90;45.78;98051.25;7317669;19;129606;-36
2021/12/11 00:13:46;;;;;;;19.13;4.43;;;;;;;24.03;45.06;98055.81;7314556;19;131815;-37
2021/12/11 00:16:19;;;;;;;9.57;2.80;;;;;;;24.10;45.04;98054.84;7315236;19;130847;-35
2021/12/11 00:18:48;;;;;;;14.57;3.53;;;;;;;24.13;44.91;98059.72;7316499;19;129007;-39
2021/12/11 00:21:17;;;;;;;10.75;2.88;;;;;;;24.14;45.05;98066.59;7317454;19;129187;-39
2021/12/11 00:23:52;;;;;;;19.55;4.55;;;;;;;24.07;44.96;98071.00;7315920;19;130757;-37
2021/12/11 00:26:40;;;;;;;10.65;3.22;;;;;;;23.98;44.90;98074.75;7315989;19;130726;-38
2021/12/11 00:29:09;;;;;;;10.88;2.78;;;;;;;23.82;45.69;98061.88;7317019;19;128977;-39
2021/12/11 00:31:36;;;;;;;18.25;3.85;;;;;;;23.85;45.91;98072.00;7316081;19;129399;-36
2021/12/11 00:34:03;;;;;;;12.73;3.20;;;;;;;23.75;45.21;98079.41;7316069;19;130404;-39
2021/12/11 00:36:32;;;;;;;13.20;3.00;;;;;;;23.62;46.14;98087.16;7314478;19;130940;-40
2021/12/11 00:39:07;;;;;;;16.60;3.92;;;;;;;23.58;45.87;98085.94;7316589;19;129524;-39
2021/12/11 00:41:33;;;;;;;11.07;2.90;;;;;;;23.53;46.50;98087.50;7316760;19;129489;-39
2021/12/11 00:44:01;;;;;;;18.87;4.40;;;;;;;23.45;46.67;98090.25;7313754;19;130123;-39
2021/12/11 00:46:28;;;;;;;13.32;3.15;;;;;;;23.39;46.83;98096.25;7316325;19;130383;-39
2021/12/11 00:49:05;;;;;;;19.08;4.03;;;;;;;23.32;46.57;98098.78;7316723;19;129765;-38
2021/12/11 00:51:30;;;;;;;16.37;4.03;;;;;;;23.26;46.79;98107.38;7315709;19;129092;-40
2021/12/11 00:53:58;;;;;;;21.38;4.80;;;;;;;23.22;47.58;98111.38;7311962;19;130002;-37
2021/12/11 00:56:29;;;;;;;10.43;2.85;;;;;;;23.21;47.22;98112.34;7313726;19;129736;-34
2021/12/11 00:58:59;;;;;;;15.27;3.95;;;;;;;23.14;46.76;98119.34;7315396;19;128972;-38
2021/12/11 01:01:35;;;;;;;10.82;3.10;;;;;;;23.12;47.25;98121.34;7314798;19;128906;-37
2021/12/11 01:04:10;;;;;;;14.57;3.77;;;;;;;23.13;47.45;98128.22;7312708;19;132193;-40
2021/12/11 01:06:52;;;;;;;15.70;3.22;;;;;;;23.14;47.44;98135.06;7314261;19;130021;-37
2021/12/11 01:09:21;;;;;;;11.82;3.22;;;;;;;23.18;47.00;98138.97;7315072;19;128813;-38
2021/12/11 01:11:51;;;;;;;17.65;4.05;;;;;;;23.27;46.52;98139.69;7314363;19;129739;-36
2021/12/11 01:14:33;;;;;;;14.30;3.33;;;;;;;23.34;47.12;98146.63;7312501;19;130421;-34
2021/12/11 01:17:05;;;;;;;12.05;3.20;;;;;;;23.38;46.66;98142.63;7312216;19;130724;-37
2021/12/11 01:19:36;;;;;;;10.30;3.08;;;;;;;23.51;46.47;98157.69;7314600;19;129508;-34
2021/12/11 01:22:11;;;;;;;13.95;3.55;;;;;;;23.60;46.33;98157.38;7314488;19;128947;-39
2021/12/11 01:24:45;;;;;;;16.65;3.53;;;;;;;23.72;45.85;98163.75;7311998;19;129447;-36
2021/12/11 01:27:21;;;;;;;12.13;3.03;;;;;;;23.78;45.37;98164.81;7313926;19;130453;-37
2021/12/11 01:29:49;;;;;;;22.42;4.97;;;;;;;23.89;45.34;98166.94;7313734;19;129267;-36
2021/12/11 01:32:15;;;;;;;10.07;2.67;;;;;;;23.95;44.65;98172.25;7314921;19;129082;-38
2021/12/11 01:34:41;;;;;;;16.43;3.80;;;;;;;24.04;44.90;98181.66;7312606;19;129332;-37
2021/12/11 01:37:08;;;;;;;14.05;3.58;;;;;;;24.10;44.53;98183.50;7311236;19;132225;-37
2021/12/11 01:39:40;;;;;;;12.90;3.35;;;;;;;24.07;44.78;98165.50;7314480;19;129422;-38
2021/12/11 01:42:13;;;;;;;13.48;3.05;;;;;;;24.14;44.49;98182.13;7313874;19;129329;-36
2021/12/11 01:44:41;;;;;;;16.42;4.15;;;;;;;24.08;44.51;98192.59;7310807;19;129636;-39
2021/12/11 01:47:12;;;;;;;5.45;2.40;;;;;;;23.92;44.79;98187.56;7313557;19;129428;-35
2021/12/11 01:49:41;;;;;;;13.98;3.53;;;;;;;23.94;44.80;98196.88;7313382;19;129733;-36
2021/12/11 01:52:12;;;;;;;6.55;2.30;;;;;;;23.85;45.07;98203.25;7313992;19;129483;-35
2021/12/11 01:54:44;;;;;;;11.38;2.92;;;;;;;23.75;45.36;98199.31;7310760;19;129021;-38
2021/12/11 01:57:21;;;;;;;9.98;2.55;;;;;;;23.69;45.34;98203.50;7312002;19;130596;-36
2021/12/11 01:59:53;;;;;;;23.25;4.60;;;;;;;23.58;45.70;98206.63;7312748;19;129143;-36
2021/12/11 02:02:30;;;;;;;14.77;3.85;;;;;;;23.43;46.32;98195.34;7313549;19;129241;-38
2021/12/11 02:04:56;;;;;;;16.35;4.00;;;;;;;23.44;46.76;98210.09;7310466;19;130138;-39
2021/12/11 02:07:26;;;;;;;13.00;3.30;;;;;;;23.38;47.07;98218.69;7312914;19;129644;-39
2021/12/11 02:09:57;;;;;;;21.08;4.60;;;;;;;23.35;46.91;98219.06;7313354;19;129054;-40
2021/12/11 02:12:38;;;;;;;12.40;3.30;;;;;;;23.26;47.19;98222.75;7313458;19;129579;-38
2021/12/11 02:15:11;;;;;;;9.50;3.00;;;;;;;23.23;46.95;98229.19;7309747;19;130228;-35
2021/12/11 02:17:44;;;;;;;14.90;3.33;;;;;;;23.20;47.29;98231.34;7308899;19;129315;-38
2021/12/11 02:20:15;;;;;;;11.52;2.80;;;;;;;23.20;46.67;98239.22;7313481;19;129999;-36
2021/12/11 02:22:48;;;;;;;12.82;3.25;;;;;;;23.19;47.48;98242.81;7313335;19;129480;-37
2021/12/11 02:25:21;;;;;;;14.75;3.78;;;;;;;23.22;46.61;98245.09;7309707;19;129558;-37
2021/12/11 02:28:04;;;;;;;20.02;4.28;;;;;;;23.23;46.89;98244.09;7312756;19;129169;-37
2021/12/11 02:31:05;;;;;;;8.40;2.92;;;;;;;23.33;46.82;98247.28;7312102;19;129162;-40
2021/12/11 02:33:45;;;;;;;12.40;3.50;;;;;;;23.38;46.37;98254.59;7310557;19;129041;-36
2021/12/11 02:36:43;;;;;;;15.82;3.65;;;;;;;23.48;46.11;98258.56;7310916;19;131479;-39
2021/12/11 02:39:30;;;;;;;10.30;3.37;;;;;;;23.57;45.92;98260.06;7312310;19;129901;-39
2021/12/11 02:42:01;;;;;;;22.50;4.95;;;;;;;23.65;45.74;98264.41;7312274;19;130411;-38
2021/12/11 02:44:34;;;;;;;14.45;3.88;;;;;;;23.66;45.55;98256.34;7310118;19;129502;-39
2021/12/11 02:47:02;;;;;;;16.58;3.90;;;;;;;23.82;45.18;98266.63;7311954;19;129244;-38
2021/12/11 02:49:33;;;;;;;16.52;3.85;;;;;;;23.93;44.92;98274.00;7312348;19;130527;-39
2021/12/11 02:52:09;;;;;;;15.48;4.18;;;;;;;24.01;44.84;98270.47;7311886;19;128982;-37
2021/12/11 02:54:45;;;;;;;15.52;3.40;;;;;;;24.06;44.41;98274.19;7310305;19;129064;-40
2021/12/11 02:57:21;;;;;;;9.30;2.72;;;;;;;24.13;44.62;98277.66;7309199;19;132879;-42
2021/12/11 02:59:47;;;;;;;16.50;4.03;;;;;;;24.17;44.16;98289.44;7311522;19;129300;-37
2021/12/11 03:02:18;;;;;;;14.23;3.80;;;;;;;24.11;44.64;98290.16;7312743;19;128984;-38
2021/12/11 03:04:52;;;;;;;14.65;4.18;;;;;;;24.04;44.68;98291.09;7308917;19;130784;-39
2021/12/11 03:07:26;;;;;;;10.05;2.75;;;;;;;23.95;44.88;98298.25;7311503;19;130159;-38
2021/12/11 03:09:55;;;;;;;22.77;4.80;;;;;;;23.86;44.90;98298.56;7310904;19;130846;-39
2021/12/11 03:12:22;;;;;;;7.60;2.83;;;;;;;23.77;45.14;98302.28;7311495;19;129497;-38
2021/12/11 03:14:48;;;;;;;15.73;4.05;;;;;;;23.72;45.16;98313.34;7308171;19;128969;-38
2021/12/11 03:17:15;;;;;;;14.90;3.45;;;;;;;23.64;45.48;98321.31;7308829;19;129298;-37
2021/12/11 03:19:43;;;;;;;17.75;4.10;;;;;;;23.54;46.24;98320.78;7311483;19;132154;-38
2021/12/11 03:22:13;;;;;;;9.35;2.67;;;;;;;23.45;46.55;98321.91;7311500;19;129052;-38
2021/12/11 03:24:38;;;;;;;12.02;3.20;;;;;;;23.39;46.69;98333.09;7309391;19;129391;-37
2021/12/11 03:27:04;;;;;;;14.10;3.40;;;;;;;23.36;46.30;98343.97;7310787;19;129156;-37
2021/12/11 03:29:30;;;;;;;17.85;3.90;;;;;;;23.27;46.36;98345.03;7311286;19;129696;-38
2021/12/11 03:31:56;;;;;;;16.08;4.07;;;;;;;23.23;47.31;98349.81;7312163;19;129530;-36
2021/12/11 03:34:24;;;;;;;12.27;3.30;;;;;;;23.19;46.94;98350.31;7309283;19;129847;-41
2021/12/11 03:36:51;;;;;;;15.85;4.28;;;;;;;23.17;47.05;98352.34;7308081;19;129258;-38
2021/12/11 03:39:27;;;;;;;4.67;2.37;;;;;;;23.17;47.64;98361.00;7311069;19;130362;-36
2021/12/11 03:41:55;;;;;;;19.30;4.50;;;;;;;23.15;47.22;98351.69;7311381;19;128954;-40
2021/12/11 03:44:21;;;;;;;13.82;3.72;;;;;;;23.27;47.33;98368.63;7308789;19;130219;-36
2021/12/11 03:46:52;;;;;;;17.43;3.80;;;;;;;23.31;46.67;98372.53;7310086;19;129183;-36
2021/12/11 03:49:19;;;;;;;13.15;3.60;;;;;;;23.40;46.44;98376.72;7310590;19;129873;-36
2021/12/11 03:51:47;;;;;;;24.45;5.97;;;;;;;23.47;45.47;98363.69;7308583;19;128887;-39
2021/12/11 03:54:16;;;;;;;13.82;3.63;;;;;;;23.87;44.85;98382.38;7305863;19;129623;-39
2021/12/11 03:56:42;;;;;;;16.95;3.80;;;;;;;24.24;43.93;98387.50;7308595;19;129821;-38
2021/12/11 03:59:11;;;;;;;14.18;3.70;;;;;;;24.73;43.54;98386.75;7310579;19;129255;-38
2021/12/11 04:02:01;;;;;;;11.63;3.30;;;;;;;25.22;42.03;98392.84;7309740;19;129064;-40
2021/12/11 04:04:31;;;;;;;11.07;3.40;;;;;;;25.72;41.26;98391.75;7308365;19;129351;-36
2021/12/11 04:06:58;;;;;;;16.92;3.83;;;;;;;26.15;40.06;98391.34;7309289;19;131098;-40
2021/12/11 04:09:25;;;;;;;12.52;3.63;;;;;;;26.51;39.11;98385.78;7310395;19;130462;-38
2021/12/11 04:11:53;;;;;;;18.95;4.30;;;;;;;27.04;37.95;98399.84;7309715;19;129084;-37
2021/12/11 04:14:22;;;;;;;11.27;2.92;;;;;;;27.41;37.33;98407.13;7308527;19;129049;-38
2021/12/11 04:16:49;;;;;;;19.73;3.95;;;;;;;27.65;36.96;98406.47;7306887;19;131445;-37
2021/12/11 04:19:15;;;;;;;14.10;3.47;;;;;;;27.89;36.54;98411.06;7309898;19;130250;-39
2021/12/11 04:21:41;;;;;;;21.27;4.30;;;;;;;28.08;36.53;98418.16;7310163;19;130747;-37
2021/12/11 04:24:08;;;;;;;13.98;3.65;;;;;;;28.18;35.42;98426.41;7307009;19;129511;-41
2021/12/11 04:26:35;;;;;;;12.63;3.17;;;;;;;28.14;35.91;98425.22;7308924;19;130123;-39
2021/12/11 04:29:00;;;;;;;17.40;3.70;;;;;;;28.01;36.13;98422.66;7308659;19;129204;-39
2021/12/11 04:31:28;;;;;;;12.97;3.37;;;;;;;27.86;36.46;98424.69;7309755;19;130074;-39
2021/12/11 04:33:57;;;;;;;33.13;6.45;;;;;;;27.59;37.28;98428.41;7307150;19;129073;-37
2021/12/11 04:36:29;;;;;;;17.98;4.18;;;;;;;27.28;37.45;98433.53;7308585;19;130149;-39
2021/12/11 04:38:56;;;;;;;21.10;4.40;;;;;;;27.03;38.35;98438.59;7310723;19;130349;-37
2021/12/11 04:41:30;;;;;;;13.70;3.42;;;;;;;26.73;38.53;98448.69;7316040;19;129259;-36
2021/12/11 04:43:56;;;;;;;29.23;6.00;;;;;;;26.45;39.29;98448.00;7314252;19;128946;-38
2021/12/11 04:46:22;;;;;;;14.77;3.70;;;;;;;26.18;39.78;98451.53;7316013;19;130252;-38
2021/12/11 04:49:06;;;;;;;16.80;4.23;;;;;;;25.91;40.73;98462.13;7314822;19;131039;-37
2021/12/11 04:51:48;;;;;;;13.48;3.33;;;;;;;25.67;40.87;98466.03;7316483;19;129751;-37
2021/12/11 05:00:26;;;;;;;13.70;3.30;;;;;;;24.96;42.35;98476.75;7311232;19;130465;-37
2021/12/11 05:10:59;;;;;;;21.80;4.35;;;;;;;24.32;44.22;98502.94;7315679;19;129515;-35
2021/12/11 05:13:26;;;;;;;11.20;3.05;;;;;;;24.23;43.97;98511.91;7314653;19;128795;-37
2021/12/11 05:15:55;;;;;;;20.10;4.43;;;;;;;24.13;44.79;98514.00;7314269;19;129284;-37
2021/12/11 05:18:25;;;;;;;10.23;3.15;;;;;;;24.07;44.47;98514.75;7314548;19;130814;-37
2021/12/11 05:20:56;;;;;;;19.90;4.32;;;;;;;23.95;44.81;98524.03;7315098;19;129749;-38
2021/12/11 05:23:22;;;;;;;15.48;3.55;;;;;;;23.86;45.34;98530.38;7314676;19;129048;-37
2021/12/11 05:25:48;;;;;;;17.80;3.90;;;;;;;23.80;45.37;98536.31;7313243;19;129145;-37
2021/12/11 05:28:14;;;;;;;11.77;3.45;;;;;;;23.63;45.41;98519.13;7314434;19;144157;-35
2021/12/11 05:30:46;;;;;;;11.60;3.50;;;;;;;23.68;45.16;98539.56;7313863;19;130668;-37
2021/12/11 05:33:11;;;;;;;9.32;2.72;;;;;;;23.62;46.09;98540.28;7315289;19;129246;-37
2021/12/11 05:35:39;;;;;;;12.15;3.28;;;;;;;23.56;45.91;98541.00;7313386;19;129237;-39
2021/12/11 05:38:07;;;;;;;13.65;3.55;;;;;;;23.49;45.85;98543.50;7312698;19;130336;-37
2021/12/11 05:40:35;;;;;;;14.40;3.80;;;;;;;23.39;46.13;98540.31;7314276;19;130930;-38
2021/12/11 05:43:01;;;;;;;18.70;5.18;;;;;;;23.41;46.47;98554.06;7313793;19;129360;-39
2021/12/11 05:45:27;;;;;;;14.02;4.22;;;;;;;23.35;45.85;98562.66;7310932;19;131098;-33
2021/12/11 05:47:53;;;;;;;19.63;4.53;;;;;;;23.31;45.94;98571.03;7313677;19;129544;-38
2021/12/11 05:50:26;;;;;;;11.93;3.13;;;;;;;23.32;46.23;98578.72;7313171;19;129398;-39
2021/12/11 05:52:52;;;;;;;20.95;4.47;;;;;;;23.38;46.51;98588.53;7313729;19;128928;-36
2021/12/11 05:55:19;;;;;;;14.68;4.38;;;;;;;23.46;45.88;98591.09;7309852;19;129424;-37
2021/12/11 05:57:51;;;;;;;22.52;5.03;;;;;;;23.52;45.40;98585.13;7311367;19;129550;-38
2021/12/11 06:00:19;;;;;;;7.43;2.92;;;;;;;23.67;45.11;98580.72;7313689;19;130948;-34
2021/12/11 06:02:45;;;;;;;17.73;4.22;;;;;;;23.91;44.46;98588.41;7313722;19;129032;-38
2021/12/11 06:05:10;;;;;;;15.05;3.78;;;;;;;24.18;43.95;98592.28;7309858;19;129290;-35
2021/12/11 06:07:37;;;;;;;12.95;3.42;;;;;;;24.35;43.46;98599.78;7312045;19;158267;-37
2021/12/11 06:10:08;;;;;;;14.60;3.95;;;;;;;24.43;43.42;98597.06;7313236;19;130613;-36
2021/12/11 06:12:33;;;;;;;12.45;3.42;;;;;;;24.74;43.27;98609.22;7313970;19;129371;-39
2021/12/11 06:14:59;;;;;;;11.88;3.60;;;;;;;24.87;42.23;98617.25;7311094;19;129436;-40
2021/12/11 06:17:28;;;;;;;11.48;3.47;;;;;;;25.08;42.55;98623.38;7311441;19;133833;-37
2021/12/11 06:19:56;;;;;;;18.90;4.63;;;;;;;25.19;41.93;98616.78;7313402;19;130366;-38
2021/12/11 06:22:31;;;;;;;17.48;4.43;;;;;;;25.37;41.45;98617.25;7313564;19;129425;-37
2021/12/11 06:24:58;;;;;;;18.88;4.63;;;;;;;25.48;41.10;98625.47;7310740;19;130938;-39
2021/12/11 06:27:25;;;;;;;12.15;3.45;;;;;;;25.55;41.07;98631.56;7313396;19;131234;-40
2021/12/11 06:29:51;;;;;;;20.98;4.82;;;;;;;25.61;40.69;98643.19;7312445;19;129650;-37
2021/12/11 06:32:16;;;;;;;21.13;4.60;;;;;;;25.66;40.56;98648.69;7312874;19;130371;-36
2021/12/11 06:34:42;;;;;;;18.10;4.53;;;;;;;25.64;40.89;98653.34;7309122;19;129190;-38
2021/12/11 06:37:10;;;;;;;12.38;3.40;;;;;;;25.70;40.94;98655.22;7310676;19;129178;-37
2021/12/11 06:39:36;;;;;;;12.30;3.50;;;;;;;25.75;40.66;98665.19;7312373;19;131438;-38
2021/12/11 06:42:06;;;;;;;13.98;3.85;;;;;;;25.65;40.91;98657.63;7310648;19;129082;-39
2021/12/11 06:44:32;;;;;;;15.32;4.15;;;;;;;25.78;40.87;98681.44;7310638;19;129106;-36
2021/12/11 06:47:01;;;;;;;12.23;3.67;;;;;;;25.76;40.44;98691.31;7312332;19;130490;-38
2021/12/11 06:49:30;;;;;;;10.57;3.33;;;;;;;25.69;41.13;98691.25;7312277;19;130331;-37
2021/12/11 06:51:55;;;;;;;21.48;5.22;;;;;;;25.65;41.18;98687.38;7312260;19;129189;-36
2021/12/11 06:54:22;;;;;;;23.17;5.10;;;;;;;25.53;40.89;98673.09;7309073;19;130016;-37
2021/12/11 06:56:48;;;;;;;22.10;5.00;;;;;;;25.51;41.22;98695.31;7309777;19;130311;-38
2021/12/11 06:59:14;;;;;;;;;;;;;;;25.40;41.67;98695.81;7310591;19;129539;-35
2021/12/11 07:01:40;;;;;;;16.77;4.25;;;;;;;25.31;41.47;98686.34;7308805;19;129383;-37
2021/12/11 07:04:09;;;;;;;20.08;4.55;;;;;;;25.26;41.51;98701.88;7308669;19;129063;-34
2021/12/11 07:06:37;;;;;;;12.82;3.83;;;;;;;25.15;41.87;98705.00;7308718;19;130295;-38
2021/12/11 07:09:05;;;;;;;16.27;3.92;;;;;;;25.07;41.62;98705.09;7312228;19;130588;-38
2021/12/11 07:11:31;;;;;;;16.40;4.38;;;;;;;24.97;42.08;98715.09;7311488;19;129015;-35
2021/12/11 07:13:57;;;;;;;20.75;4.80;;;;;;;24.88;41.94;98721.41;7306850;19;129483;-35
2021/12/11 07:16:22;;;;;;;18.07;4.40;;;;;;;24.71;42.17;98705.00;7310391;19;158176;-34
2021/12/11 07:18:50;;;;;;;15.97;4.17;;;;;;;24.69;43.01;98724.59;7303168;19;130595;-37
2021/12/11 07:21:15;;;;;;;12.23;3.78;;;;;;;24.64;43.10;98725.13;7312088;19;129050;-35
2021/12/11 07:23:48;;;;;;;16.70;4.03;;;;;;;24.58;42.68;98732.91;7308988;19;129099;-36
2021/12/11 07:26:19;;;;;;;17.23;4.68;;;;;;;24.50;43.19;98736.41;7309593;19;129233;-34
2021/12/11 07:28:48;;;;;;;22.05;4.88;;;;;;;24.47;42.91;98747.28;7305236;19;130355;-38
2021/12/11 07:31:14;;;;;;;13.68;3.67;;;;;;;24.41;43.70;98756.69;7309087;19;128959;-36
2021/12/11 07:33:40;;;;;;;17.57;4.67;;;;;;;24.37;43.34;98759.88;7309778;19;129191;-36
2021/12/11 07:36:06;;;;;;;11.83;3.80;;;;;;;24.34;42.98;98766.31;7310785;19;129659;-36
2021/12/11 07:38:32;;;;;;;12.00;3.63;;;;;;;24.26;43.81;98773.44;7309057;19;129237;-38
2021/12/11 07:41:00;;;;;;;18.17;4.77;;;;;;;24.25;43.83;98777.03;7295372;19;133083;-37
2021/12/11 07:43:28;;;;;;;10.68;3.45;;;;;;;24.20;43.87;98782.81;7309828;19;129443;-36
2021/12/11 07:45:58;;;;;;;31.85;6.28;;;;;;;24.18;43.96;98782.16;7309309;19;131515;-37
2021/12/11 07:48:23;;;;;;;21.48;5.43;;;;;;;24.05;43.71;98778.50;7310587;19;129505;-41
2021/12/11 07:50:49;;;;;;;31.42;6.43;;;;;;;24.09;43.98;98804.25;7306634;19;155315;-38
2021/12/11 07:53:16;;;;;;;18.98;4.53;;;;;;;24.04;43.65;98787.38;7307154;19;129238;-37
2021/12/11 07:55:42;;;;;;;21.08;4.75;;;;;;;24.05;44.04;98800.31;7309189;19;129351;-37
2021/12/11 07:58:08;;;;;;;20.15;4.47;;;;;;;23.96;43.95;98792.66;7307358;19;129732;-35
2021/12/11 08:00:38;;;;;;;19.20;5.43;;;;;;;23.94;43.78;98805.97;7297343;19;131065;-36
2021/12/11 08:03:05;;;;;;;25.50;5.97;;;;;;;24.06;44.18;98825.63;7304037;19;130077;-37
2021/12/11 08:05:31;;;;;;;23.08;5.38;;;;;;;24.01;44.07;98833.19;7306067;19;132034;-36
2021/12/11 08:08:00;;;;;;;15.77;4.68;;;;;;;24.04;43.78;98840.72;7307575;19;129519;-38
2021/12/11 08:10:27;;;;;;;13.90;4.03;;;;;;;23.95;44.25;98828.59;7310082;19;128627;-39
2021/12/11 08:12:53;;;;;;;20.88;5.10;;;;;;;24.02;44.24;98845.31;7309593;19;129038;-37
2021/12/11 08:15:19;;;;;;;19.58;4.95;;;;;;;23.97;44.18;98847.63;7310985;19;129310;-37
2021/12/11 08:17:52;;;;;;;24.47;5.20;;;;;;;24.06;44.21;98851.88;7315564;19;129599;-37
2021/12/11 08:20:18;;;;;;;15.82;4.32;;;;;;;23.99;44.38;98860.59;7315150;19;129410;-37
2021/12/11 08:22:43;;;;;;;26.38;6.18;;;;;;;23.93;44.14;98851.56;7316452;19;129507;-36
2021/12/11 08:25:10;;;;;;;16.57;5.33;;;;;;;24.02;44.07;98866.31;7313420;19;129733;-36
2021/12/11 08:27:36;;;;;;;14.48;4.22;;;;;;;24.02;44.03;98876.00;7315036;19;129809;-33
2021/12/11 08:30:03;;;;;;;20.27;5.07;;;;;;;24.06;44.17;98875.50;7316479;19;129739;-37
2021/12/11 08:32:28;;;;;;;;;;;;;;;24.06;43.61;98872.88;7316958;19;128743;-38
2021/12/11 08:34:54;;;;;;;20.70;5.43;;;;;;;24.11;44.18;98886.28;7306238;19;158682;-36
2021/12/11 08:37:23;;;;;;;15.60;4.93;;;;;;;24.13;43.71;98894.81;7312429;19;129670;-36
2021/12/11 08:39:49;;;;;;;18.38;4.65;;;;;;;24.16;43.73;98897.09;7313579;19;128996;-38
2021/12/11 08:42:19;;;;;;;19.43;5.27;;;;;;;24.18;43.69;98905.63;7314017;19;128980;-36
2021/12/11 08:44:52;;;;;;;26.05;5.65;;;;;;;24.20;44.15;98901.03;7296883;19;129264;-38
2021/12/11 08:47:20;;;;;;;19.08;5.38;;;;;;;24.21;44.16;98907.91;7311827;19;130923;-36
2021/12/11 08:49:46;;;;;;;34.05;7.15;;;;;;;24.23;43.65;98916.44;7309913;19;129448;-37
2021/12/11 08:52:19;;;;;;;27.17;6.60;;;;;;;24.20;43.47;98931.72;7314662;19;129489;-37
2021/12/11 08:54:47;;;;;;;32.05;7.32;;;;;;;24.21;43.57;98923.66;7306146;19;130289;-38
2021/12/11 08:57:24;;;;;;;20.90;5.18;;;;;;;24.27;43.81;98928.25;7309962;19;130505;-39
2021/12/11 08:59:53;;;;;;;24.20;5.78;;;;;;;24.28;42.95;98929.88;7307780;19;129788;-37
2021/12/11 09:02:26;;;;;;;17.52;5.05;;;;;;;24.29;43.81;98936.78;7309752;19;129595;-38
2021/12/11 09:05:10;;;;;;;27.35;6.95;;;;;;;24.31;43.36;98931.34;7312732;19;130300;-37
2021/12/11 09:07:50;;;;;;;27.95;8.63;;;;;;;24.21;39.68;98949.94;7314903;19;133695;-38
2021/12/11 09:10:24;;;;;;;19.77;6.88;;;;;;;24.14;39.72;98951.63;7313927;19;128814;-33
2021/12/11 09:12:58;;;;;;;30.90;8.32;;;;;;;24.18;39.37;98954.72;7313304;19;129090;-37
2021/12/11 09:15:32;;;;;;;20.13;7.60;;;;;;;24.18;39.91;98955.53;7310289;19;129160;-37
2021/12/11 09:18:05;;;;;;;20.02;7.03;;;;;;;24.29;40.75;98967.47;7313441;19;132005;-37
2021/12/11 09:20:38;;;;;;;39.20;9.20;;;;;;;24.34;41.12;98955.47;7313568;19;129644;-36
2021/12/11 09:23:16;;;;;;;18.63;6.63;;;;;;;24.50;40.61;98965.03;7313818;19;129467;-37
2021/12/11 09:25:50;;;;;;;25.83;7.13;;;;;;;24.57;41.00;98959.91;7307983;19;130641;-35
2021/12/11 09:28:26;;;;;;;19.70;6.28;;;;;;;24.66;41.49;98975.44;7314879;19;129343;-36
2021/12/11 09:31:03;;;;;;;26.85;7.95;;;;;;;24.61;41.01;98976.97;7313508;19;129386;-33
2021/12/11 09:33:32;;;;;;;22.83;7.47;;;;;;;24.54;41.63;98987.38;7313269;19;129466;-38
2021/12/11 09:36:03;;;;;;;23.35;7.07;;;;;;;24.43;42.36;99000.88;7312531;19;131976;-36
2021/12/11 09:38:35;;;;;;;21.38;7.15;;;;;;;24.28;41.52;98995.53;7312051;19;130943;-35
2021/12/11 09:41:21;;;;;;;25.13;7.40;;;;;;;24.21;41.13;99002.47;7313142;19;129011;-38
2021/12/11 09:43:49;;;;;;;30.10;8.95;;;;;;;24.26;41.81;99008.03;7309784;19;130558;-36
2021/12/11 09:46:19;;;;;;;21.33;7.00;;;;;;;24.25;41.74;99006.41;7309574;19;158898;-38
2021/12/11 09:48:47;;;;;;;28.48;7.45;;;;;;;24.31;41.16;99013.59;7313829;19;129513;-36
2021/12/11 09:51:15;;;;;;;23.85;6.78;;;;;;;24.34;41.26;99008.00;7313521;19;130383;-38
2021/12/11 09:53:47;;;;;;;18.02;6.30;;;;;;;24.42;40.56;99015.03;7313589;19;129401;-39
2021/12/11 09:56:30;;;;;;;18.15;6.43;;;;;;;24.51;40.68;99019.22;7312279;19;129818;-37
2021/12/11 09:58:58;;;;;;;17.70;5.93;;;;;;;24.59;40.94;99021.00;7311570;19;130742;-36
2021/12/11 10:01:29;;;;;;;26.02;7.50;;;;;;;24.68;40.14;99020.00;7312873;19;129853;-34
2021/12/11 10:04:01;;;;;;;32.05;8.90;;;;;;;24.67;39.89;99013.06;7311731;19;128848;-38
2021/12/11 10:06:42;;;;;;;21.63;6.53;;;;;;;24.81;40.11;99020.28;7313351;19;130074;-38
2021/12/11 10:09:19;;;;;;;20.48;6.95;;;;;;;24.85;39.62;99017.09;7314021;19;129371;-34
2021/12/11 10:12:07;;;;;;;22.95;7.22;;;;;;;24.95;39.83;99022.13;7310567;19;129148;-37
2021/12/11 10:14:42;;;;;;;22.70;6.75;;;;;;;24.99;40.27;99036.59;7308572;19;130004;-37
2021/12/11 10:17:12;;;;;;;11.40;5.25;;;;;;;25.03;39.75;99045.75;7312668;19;130505;-35
2021/12/11 10:19:41;;;;;;;16.80;6.28;;;;;;;25.08;39.92;99043.41;7311933;19;131395;-35
2021/12/11 10:22:23;;;;;;;16.13;5.90;;;;;;;25.13;39.67;99046.34;7312832;19;130412;-37
2021/12/11 10:24:52;;;;;;;34.72;8.93;;;;;;;25.15;39.12;99049.63;7307533;19;129063;-37
2021/12/11 10:27:21;;;;;;;20.88;6.65;;;;;;;25.16;39.04;99056.50;7312153;19;129248;-37
2021/12/11 10:29:47;;;;;;;21.02;6.53;;;;;;;25.14;39.51;99055.88;7312317;19;131115;-34
2021/12/11 10:32:17;;;;;;;16.38;5.47;;;;;;;25.16;39.12;99061.75;7311844;19;130067;-34
2021/12/11 10:34:49;;;;;;;26.75;7.63;;;;;;;25.24;39.16;99069.59;7307381;19;129597;-38
2021/12/11 10:37:22;;;;;;;21.95;6.93;;;;;;;25.24;39.13;99065.16;7309325;19;132306;-37
2021/12/11 10:39:51;;;;;;;20.63;6.60;;;;;;;25.28;39.66;99073.53;7312594;19;130296;-35
2021/12/11 10:42:18;;;;;;;16.77;6.35;;;;;;;25.29;38.89;99077.78;7311417;19;129479;-35
2021/12/11 10:44:50;;;;;;;23.73;7.20;;;;;;;25.27;38.81;99079.78;7307687;19;129796;-37
2021/12/11 10:47:37;;;;;;;33.17;8.82;;;;;;;25.27;38.85;99079.78;7307534;19;130111;-38
2021/12/11 10:50:06;;;;;;;;;;;;;;;25.23;39.47;99083.75;7297899;19;131814;-37
2021/12/11 10:52:32;;;;;;;18.33;6.22;;;;;;;25.34;39.26;99091.22;7311276;19;130461;-38
2021/12/11 10:55:00;;;;;;;22.80;6.43;;;;;;;25.31;38.62;99091.59;7309224;19;129597;-38
2021/12/11 10:57:26;;;;;;;17.13;6.03;;;;;;;25.29;38.94;99093.56;7310836;19;130300;-38
2021/12/11 10:59:56;;;;;;;24.77;6.87;;;;;;;25.29;38.67;99101.47;7312061;19;132483;-36
2021/12/11 11:02:26;;;;;;;19.13;6.28;;;;;;;25.28;39.01;99105.09;7311014;19;130748;-36
2021/12/11 11:05:09;;;;;;;22.65;7.18;;;;;;;25.34;38.56;99118.38;7307363;19;129483;-37
2021/12/11 11:07:35;;;;;;;15.35;5.38;;;;;;;25.35;38.89;99119.22;7309899;19;129830;-38
2021/12/11 11:10:05;;;;;;;26.63;7.13;;;;;;;25.20;38.60;99102.53;7308582;19;130336;-37
2021/12/11 11:12:31;;;;;;;20.05;5.70;;;;;;;25.31;38.53;99125.78;7311697;19;129244;-33
2021/12/11 11:14:57;;;;;;;18.07;6.03;;;;;;;25.33;38.62;99131.72;7308989;19;128965;-39
2021/12/11 11:17:28;;;;;;;17.17;5.55;;;;;;;25.28;38.51;99134.03;7309224;19;131712;-37
2021/12/11 11:19:55;;;;;;;26.67;7.72;;;;;;;25.34;39.15;99143.84;7309187;19;130885;-36
2021/12/11 11:22:25;;;;;;;19.35;6.47;;;;;;;25.33;39.00;99147.50;7307559;19;129110;-35
2021/12/11 11:24:57;;;;;;;32.25;8.57;;;;;;;25.29;38.58;99151.47;7305538;19;129881;-38
2021/12/11 11:27:23;;;;;;;11.57;4.80;;;;;;;25.29;39.13;99148.81;7311658;19;130244;-35
2021/12/11 11:29:49;;;;;;;24.07;6.27;;;;;;;25.29;39.43;99161.97;7311440;19;129687;-37
2021/12/11 11:32:19;;;;;;;14.33;5.53;;;;;;;25.21;38.48;99152.34;7311146;19;129515;-38
2021/12/11 11:34:45;;;;;;;29.55;7.82;;;;;;;25.20;39.01;99165.66;7305086;19;130748;-34
2021/12/11 11:37:19;;;;;;;20.93;6.30;;;;;;;25.13;39.24;99156.81;7306250;19;131080;-35
2021/12/11 11:39:48;;;;;;;28.08;7.25;;;;;;;25.24;38.76;99174.84;7306014;19;130014;-38
2021/12/11 11:42:19;;;;;;;22.30;6.40;;;;;;;25.14;38.94;99159.28;7309960;19;129266;-37
2021/12/11 11:44:46;;;;;;;30.48;7.10;;;;;;;25.20;39.32;99177.03;7303194;19;128947;-37
2021/12/11 11:47:16;;;;;;;12.40;5.07;;;;;;;25.18;39.33;99186.06;7310640;19;133185;-35